sensor_id;sensor_type;location;lat;lon;timestamp;temperature;humidity
5466;DHT22;2755;50.728;7.108;2023-03-14T00:02:16;11.00;80.70
5466;DHT22;2755;50.728;7.108;2023-03-14T00:07:10;11.00;81.40
5466;DHT22;2755;50.728;7.108;2023-03-14T00:09:36;11.00;79.60
5466;DHT22;2755;50.728;7.108;2023-03-14T00:12:02;11.10;80.30
5466;DHT22;2755;50.728;7.108;2023-03-14T00:14:29;10.70;77.60
5466;DHT22;2755;50.728;7.108;2023-03-14T00:16:54;11.30;78.10
5466;DHT22;2755;50.728;7.108;2023-03-14T00:19:20;11.30;77.90
5466;DHT22;2755;50.728;7.108;2023-03-14T00:24:11;11.80;80.30
5466;DHT22;2755;50.728;7.108;2023-03-14T00:26:37;11.30;76.40
5466;DHT22;2755;50.728;7.108;2023-03-14T00:29:03;11.20;78.10
5466;DHT22;2755;50.728;7.108;2023-03-14T00:31:28;11.80;74.70
5466;DHT22;2755;50.728;7.108;2023-03-14T00:33:54;11.20;73.80
5466;DHT22;2755;50.728;7.108;2023-03-14T00:36:20;11.00;76.20
5466;DHT22;2755;50.728;7.108;2023-03-14T00:38:48;11.20;76.10
5466;DHT22;2755;50.728;7.108;2023-03-14T00:41:17;11.60;72.30
5466;DHT22;2755;50.728;7.108;2023-03-14T00:43:43;11.70;76.60
5466;DHT22;2755;50.728;7.108;2023-03-14T00:46:09;11.90;77.10
5466;DHT22;2755;50.728;7.108;2023-03-14T00:48:35;11.50;74.10
5466;DHT22;2755;50.728;7.108;2023-03-14T00:51:02;11.30;74.60
5466;DHT22;2755;50.728;7.108;2023-03-14T00:53:27;11.50;77.90
5466;DHT22;2755;50.728;7.108;2023-03-14T00:55:53;11.30;74.40
5466;DHT22;2755;50.728;7.108;2023-03-14T00:58:18;11.60;76.30
5466;DHT22;2755;50.728;7.108;2023-03-14T01:00:45;11.20;74.40
5466;DHT22;2755;50.728;7.108;2023-03-14T01:03:11;11.80;75.40
5466;DHT22;2755;50.728;7.108;2023-03-14T01:05:38;11.80;77.40
5466;DHT22;2755;50.728;7.108;2023-03-14T01:08:04;10.40;73.40
5466;DHT22;2755;50.728;7.108;2023-03-14T01:12:56;11.20;76.30
5466;DHT22;2755;50.728;7.108;2023-03-14T01:15:22;11.60;76.80
5466;DHT22;2755;50.728;7.108;2023-03-14T01:17:47;11.50;74.10
5466;DHT22;2755;50.728;7.108;2023-03-14T01:20:14;11.60;72.80
5466;DHT22;2755;50.728;7.108;2023-03-14T01:22:42;11.50;73.00
5466;DHT22;2755;50.728;7.108;2023-03-14T01:25:14;11.70;73.70
5466;DHT22;2755;50.728;7.108;2023-03-14T01:27:40;11.70;76.00
5466;DHT22;2755;50.728;7.108;2023-03-14T01:30:06;11.60;73.30
5466;DHT22;2755;50.728;7.108;2023-03-14T01:32:33;11.80;74.10
5466;DHT22;2755;50.728;7.108;2023-03-14T01:34:59;11.70;74.40
5466;DHT22;2755;50.728;7.108;2023-03-14T01:37:24;11.90;73.90
5466;DHT22;2755;50.728;7.108;2023-03-14T01:39:50;11.50;72.20
5466;DHT22;2755;50.728;7.108;2023-03-14T01:42:17;11.60;71.30
5466;DHT22;2755;50.728;7.108;2023-03-14T01:44:58;12.00;75.20
5466;DHT22;2755;50.728;7.108;2023-03-14T01:47:24;11.80;72.40
5466;DHT22;2755;50.728;7.108;2023-03-14T01:50:01;11.70;72.00
5466;DHT22;2755;50.728;7.108;2023-03-14T01:52:35;11.60;74.20
5466;DHT22;2755;50.728;7.108;2023-03-14T01:55:23;11.40;77.20
5466;DHT22;2755;50.728;7.108;2023-03-14T01:57:57;11.40;82.00
5466;DHT22;2755;50.728;7.108;2023-03-14T02:00:24;11.40;82.00
5466;DHT22;2755;50.728;7.108;2023-03-14T02:02:55;11.20;86.70
5466;DHT22;2755;50.728;7.108;2023-03-14T02:05:36;11.00;92.40
5466;DHT22;2755;50.728;7.108;2023-03-14T02:08:05;10.90;93.10
5466;DHT22;2755;50.728;7.108;2023-03-14T02:13:02;10.70;96.10
5466;DHT22;2755;50.728;7.108;2023-03-14T02:17:54;10.80;97.30
5466;DHT22;2755;50.728;7.108;2023-03-14T02:20:34;10.70;98.40
5466;DHT22;2755;50.728;7.108;2023-03-14T02:23:01;10.50;97.30
5466;DHT22;2755;50.728;7.108;2023-03-14T02:25:46;10.50;98.20
5466;DHT22;2755;50.728;7.108;2023-03-14T02:30:38;10.50;96.80
5466;DHT22;2755;50.728;7.108;2023-03-14T02:35:35;10.40;97.00
5466;DHT22;2755;50.728;7.108;2023-03-14T02:38:21;10.20;96.40
5466;DHT22;2755;50.728;7.108;2023-03-14T02:40:49;10.30;95.20
5466;DHT22;2755;50.728;7.108;2023-03-14T02:43:14;10.40;96.30
5466;DHT22;2755;50.728;7.108;2023-03-14T02:45:42;9.60;96.60
5466;DHT22;2755;50.728;7.108;2023-03-14T02:50:39;10.10;96.20
5466;DHT22;2755;50.728;7.108;2023-03-14T02:53:05;9.80;96.50
5466;DHT22;2755;50.728;7.108;2023-03-14T02:55:31;10.00;94.70
5466;DHT22;2755;50.728;7.108;2023-03-14T02:57:56;9.70;94.70
5466;DHT22;2755;50.728;7.108;2023-03-14T03:00:22;9.90;95.30
5466;DHT22;2755;50.728;7.108;2023-03-14T03:02:48;10.00;93.70
5466;DHT22;2755;50.728;7.108;2023-03-14T03:07:40;10.30;93.10
5466;DHT22;2755;50.728;7.108;2023-03-14T03:10:06;10.10;94.00
5466;DHT22;2755;50.728;7.108;2023-03-14T03:12:31;10.10;92.00
5466;DHT22;2755;50.728;7.108;2023-03-14T03:14:57;10.00;92.50
5466;DHT22;2755;50.728;7.108;2023-03-14T03:19:48;9.90;91.90
5466;DHT22;2755;50.728;7.108;2023-03-14T03:22:14;10.20;93.10
5466;DHT22;2755;50.728;7.108;2023-03-14T03:24:40;9.50;92.00
5466;DHT22;2755;50.728;7.108;2023-03-14T03:29:31;10.50;90.80
5466;DHT22;2755;50.728;7.108;2023-03-14T03:31:57;10.40;90.50
5466;DHT22;2755;50.728;7.108;2023-03-14T03:34:22;10.50;91.30
5466;DHT22;2755;50.728;7.108;2023-03-14T03:39:14;10.80;88.90
5466;DHT22;2755;50.728;7.108;2023-03-14T03:41:39;10.80;90.40
5466;DHT22;2755;50.728;7.108;2023-03-14T03:44:05;10.50;87.10
5466;DHT22;2755;50.728;7.108;2023-03-14T03:46:31;10.80;89.40
5466;DHT22;2755;50.728;7.108;2023-03-14T03:48:58;10.20;86.40
5466;DHT22;2755;50.728;7.108;2023-03-14T03:51:24;10.80;86.40
5466;DHT22;2755;50.728;7.108;2023-03-14T03:53:50;10.20;85.30
5466;DHT22;2755;50.728;7.108;2023-03-14T03:56:16;10.70;85.80
5466;DHT22;2755;50.728;7.108;2023-03-14T03:58:42;10.80;86.20
5466;DHT22;2755;50.728;7.108;2023-03-14T04:01:08;10.60;87.80
5466;DHT22;2755;50.728;7.108;2023-03-14T04:03:34;10.60;86.30
5466;DHT22;2755;50.728;7.108;2023-03-14T04:06:02;10.60;85.90
5466;DHT22;2755;50.728;7.108;2023-03-14T04:08:28;10.80;89.10
5466;DHT22;2755;50.728;7.108;2023-03-14T04:10:58;10.80;86.70
5466;DHT22;2755;50.728;7.108;2023-03-14T04:13:25;9.60;89.90
5466;DHT22;2755;50.728;7.108;2023-03-14T04:15:51;10.20;89.80
5466;DHT22;2755;50.728;7.108;2023-03-14T04:18:17;10.40;87.60
5466;DHT22;2755;50.728;7.108;2023-03-14T04:20:42;10.20;88.50
5466;DHT22;2755;50.728;7.108;2023-03-14T04:23:08;10.40;89.40
5466;DHT22;2755;50.728;7.108;2023-03-14T04:25:34;10.40;90.50
5466;DHT22;2755;50.728;7.108;2023-03-14T04:27:59;11.00;89.60
5466;DHT22;2755;50.728;7.108;2023-03-14T04:32:51;10.60;88.70
5466;DHT22;2755;50.728;7.108;2023-03-14T04:37:42;10.10;87.10
5466;DHT22;2755;50.728;7.108;2023-03-14T04:40:09;10.80;86.90
5466;DHT22;2755;50.728;7.108;2023-03-14T04:42:35;10.80;88.80
5466;DHT22;2755;50.728;7.108;2023-03-14T04:45:01;10.60;92.70
5466;DHT22;2755;50.728;7.108;2023-03-14T04:47:27;10.30;95.80
5466;DHT22;2755;50.728;7.108;2023-03-14T04:49:53;10.10;99.90
5466;DHT22;2755;50.728;7.108;2023-03-14T04:54:44;9.70;99.90
5466;DHT22;2755;50.728;7.108;2023-03-14T04:57:10;9.60;99.90
5466;DHT22;2755;50.728;7.108;2023-03-14T04:59:35;9.40;99.90
5466;DHT22;2755;50.728;7.108;2023-03-14T05:02:01;9.60;99.90
5466;DHT22;2755;50.728;7.108;2023-03-14T05:04:26;9.30;99.90
5466;DHT22;2755;50.728;7.108;2023-03-14T05:06:52;9.20;99.90
5466;DHT22;2755;50.728;7.108;2023-03-14T05:09:17;9.00;99.90
5466;DHT22;2755;50.728;7.108;2023-03-14T05:11:43;8.50;99.90
5466;DHT22;2755;50.728;7.108;2023-03-14T05:14:08;9.20;99.90
5466;DHT22;2755;50.728;7.108;2023-03-14T05:16:34;9.00;99.90
5466;DHT22;2755;50.728;7.108;2023-03-14T05:19:00;9.30;99.90
5466;DHT22;2755;50.728;7.108;2023-03-14T05:21:27;8.70;99.90
5466;DHT22;2755;50.728;7.108;2023-03-14T05:23:52;9.30;99.90
5466;DHT22;2755;50.728;7.108;2023-03-14T05:28:44;9.00;99.90
5466;DHT22;2755;50.728;7.108;2023-03-14T05:31:10;8.90;99.90
5466;DHT22;2755;50.728;7.108;2023-03-14T05:33:35;8.70;99.90
5466;DHT22;2755;50.728;7.108;2023-03-14T05:36:01;8.80;99.90
5466;DHT22;2755;50.728;7.108;2023-03-14T05:38:26;8.70;99.90
5466;DHT22;2755;50.728;7.108;2023-03-14T05:40:52;8.70;99.90
5466;DHT22;2755;50.728;7.108;2023-03-14T05:43:17;8.70;99.90
5466;DHT22;2755;50.728;7.108;2023-03-14T05:45:43;8.50;99.90
5466;DHT22;2755;50.728;7.108;2023-03-14T05:48:09;8.70;99.90
5466;DHT22;2755;50.728;7.108;2023-03-14T05:50:34;8.70;99.90
5466;DHT22;2755;50.728;7.108;2023-03-14T05:53:00;8.20;99.90
5466;DHT22;2755;50.728;7.108;2023-03-14T05:55:26;8.60;99.90
5466;DHT22;2755;50.728;7.108;2023-03-14T05:57:53;8.60;99.90
5466;DHT22;2755;50.728;7.108;2023-03-14T06:00:19;8.30;99.90
5466;DHT22;2755;50.728;7.108;2023-03-14T06:02:45;8.90;99.90
5466;DHT22;2755;50.728;7.108;2023-03-14T06:05:10;9.10;99.90
5466;DHT22;2755;50.728;7.108;2023-03-14T06:07:36;8.60;99.90
5466;DHT22;2755;50.728;7.108;2023-03-14T06:10:02;8.80;99.90
5466;DHT22;2755;50.728;7.108;2023-03-14T06:12:27;9.10;99.90
5466;DHT22;2755;50.728;7.108;2023-03-14T06:14:53;9.50;99.90
5466;DHT22;2755;50.728;7.108;2023-03-14T06:17:19;8.60;99.90
5466;DHT22;2755;50.728;7.108;2023-03-14T06:19:44;9.30;99.90
5466;DHT22;2755;50.728;7.108;2023-03-14T06:22:10;9.10;99.90
5466;DHT22;2755;50.728;7.108;2023-03-14T06:24:36;8.70;99.90
5466;DHT22;2755;50.728;7.108;2023-03-14T06:27:01;9.50;99.90
5466;DHT22;2755;50.728;7.108;2023-03-14T06:29:29;9.10;99.90
5466;DHT22;2755;50.728;7.108;2023-03-14T06:34:20;9.10;99.90
5466;DHT22;2755;50.728;7.108;2023-03-14T06:39:12;9.30;99.90
5466;DHT22;2755;50.728;7.108;2023-03-14T06:41:38;8.70;99.90
5466;DHT22;2755;50.728;7.108;2023-03-14T06:44:04;9.10;99.90
5466;DHT22;2755;50.728;7.108;2023-03-14T06:46:30;9.40;99.90
5466;DHT22;2755;50.728;7.108;2023-03-14T06:48:55;8.80;99.90
5466;DHT22;2755;50.728;7.108;2023-03-14T06:51:21;9.30;99.90
5466;DHT22;2755;50.728;7.108;2023-03-14T06:53:47;9.30;99.90
5466;DHT22;2755;50.728;7.108;2023-03-14T06:56:12;9.10;99.90
5466;DHT22;2755;50.728;7.108;2023-03-14T06:58:38;10.10;99.90
5466;DHT22;2755;50.728;7.108;2023-03-14T07:01:04;9.60;99.90
5466;DHT22;2755;50.728;7.108;2023-03-14T07:03:29;10.40;99.90
5466;DHT22;2755;50.728;7.108;2023-03-14T07:05:55;11.20;99.90
5466;DHT22;2755;50.728;7.108;2023-03-14T07:08:21;11.50;99.90
5466;DHT22;2755;50.728;7.108;2023-03-14T07:10:46;12.60;94.10
5466;DHT22;2755;50.728;7.108;2023-03-14T07:13:12;13.50;90.30
5466;DHT22;2755;50.728;7.108;2023-03-14T07:15:37;13.50;80.60
5466;DHT22;2755;50.728;7.108;2023-03-14T07:20:29;13.80;70.30
5466;DHT22;2755;50.728;7.108;2023-03-14T07:25:25;15.10;59.30
5466;DHT22;2755;50.728;7.108;2023-03-14T07:27:51;15.00;59.50
5466;DHT22;2755;50.728;7.108;2023-03-14T07:35:09;15.60;49.20
5466;DHT22;2755;50.728;7.108;2023-03-14T07:40:01;15.90;46.20
5466;DHT22;2755;50.728;7.108;2023-03-14T07:42:26;16.10;46.40
5466;DHT22;2755;50.728;7.108;2023-03-14T07:49:44;17.30;39.10
5466;DHT22;2755;50.728;7.108;2023-03-14T07:52:09;17.30;36.70
5466;DHT22;2755;50.728;7.108;2023-03-14T07:57:01;17.90;30.30
5466;DHT22;2755;50.728;7.108;2023-03-14T07:59:27;17.50;29.20
5466;DHT22;2755;50.728;7.108;2023-03-14T08:01:53;17.40;30.30
5466;DHT22;2755;50.728;7.108;2023-03-14T08:04:18;17.80;30.90
5466;DHT22;2755;50.728;7.108;2023-03-14T08:06:44;18.00;28.70
5466;DHT22;2755;50.728;7.108;2023-03-14T08:11:36;17.90;27.20
5466;DHT22;2755;50.728;7.108;2023-03-14T08:18:54;17.80;29.30
5466;DHT22;2755;50.728;7.108;2023-03-14T08:21:19;16.90;27.90
5466;DHT22;2755;50.728;7.108;2023-03-14T08:23:45;16.30;28.60
5466;DHT22;2755;50.728;7.108;2023-03-14T08:28:36;16.00;35.10
5466;DHT22;2755;50.728;7.108;2023-03-14T08:33:29;15.10;38.90
5466;DHT22;2755;50.728;7.108;2023-03-14T08:35:56;15.00;40.30
5466;DHT22;2755;50.728;7.108;2023-03-14T08:38:22;14.90;40.00
5466;DHT22;2755;50.728;7.108;2023-03-14T08:43:15;14.80;44.00
5466;DHT22;2755;50.728;7.108;2023-03-14T08:45:40;14.50;46.00
5466;DHT22;2755;50.728;7.108;2023-03-14T08:48:06;14.20;46.50
5466;DHT22;2755;50.728;7.108;2023-03-14T08:50:31;14.10;48.20
5466;DHT22;2755;50.728;7.108;2023-03-14T08:52:57;14.00;47.30
5466;DHT22;2755;50.728;7.108;2023-03-14T08:55:25;13.70;48.40
5466;DHT22;2755;50.728;7.108;2023-03-14T08:57:52;13.90;48.70
5466;DHT22;2755;50.728;7.108;2023-03-14T09:00:18;14.40;48.40
5466;DHT22;2755;50.728;7.108;2023-03-14T09:02:44;13.20;50.60
5466;DHT22;2755;50.728;7.108;2023-03-14T09:05:10;14.10;49.10
5466;DHT22;2755;50.728;7.108;2023-03-14T09:07:37;14.40;49.70
5466;DHT22;2755;50.728;7.108;2023-03-14T09:10:05;14.20;58.00
5466;DHT22;2755;50.728;7.108;2023-03-14T09:12:31;13.50;71.70
5466;DHT22;2755;50.728;7.108;2023-03-14T09:14:57;13.20;77.00
5466;DHT22;2755;50.728;7.108;2023-03-14T09:17:22;13.00;87.90
5466;DHT22;2755;50.728;7.108;2023-03-14T09:22:14;12.30;97.20
5466;DHT22;2755;50.728;7.108;2023-03-14T09:24:40;11.80;99.90
5466;DHT22;2755;50.728;7.108;2023-03-14T09:27:06;11.60;99.90
5466;DHT22;2755;50.728;7.108;2023-03-14T09:31:59;11.40;99.90
5466;DHT22;2755;50.728;7.108;2023-03-14T09:34:25;11.30;99.90
5466;DHT22;2755;50.728;7.108;2023-03-14T09:36:50;10.90;99.90
5466;DHT22;2755;50.728;7.108;2023-03-14T09:39:16;10.90;99.90
5466;DHT22;2755;50.728;7.108;2023-03-14T09:41:47;11.20;99.90
5466;DHT22;2755;50.728;7.108;2023-03-14T09:44:18;11.00;99.90
5466;DHT22;2755;50.728;7.108;2023-03-14T09:46:47;11.00;99.90
5466;DHT22;2755;50.728;7.108;2023-03-14T09:49:37;10.70;99.90
5466;DHT22;2755;50.728;7.108;2023-03-14T09:52:11;11.10;99.90
5466;DHT22;2755;50.728;7.108;2023-03-14T09:54:53;10.70;99.90
5466;DHT22;2755;50.728;7.108;2023-03-14T09:57:23;10.60;99.90
5466;DHT22;2755;50.728;7.108;2023-03-14T09:59:50;10.60;99.90
5466;DHT22;2755;50.728;7.108;2023-03-14T10:02:22;10.30;99.90
5466;DHT22;2755;50.728;7.108;2023-03-14T10:04:50;9.80;99.90
5466;DHT22;2755;50.728;7.108;2023-03-14T10:07:19;9.60;99.90
5466;DHT22;2755;50.728;7.108;2023-03-14T10:12:16;9.70;99.90
5466;DHT22;2755;50.728;7.108;2023-03-14T10:14:50;9.00;99.90
5466;DHT22;2755;50.728;7.108;2023-03-14T10:17:18;8.60;99.90
5466;DHT22;2755;50.728;7.108;2023-03-14T10:19:53;9.00;99.90
5466;DHT22;2755;50.728;7.108;2023-03-14T10:22:19;8.20;99.90
5466;DHT22;2755;50.728;7.108;2023-03-14T10:24:46;8.70;99.90
5466;DHT22;2755;50.728;7.108;2023-03-14T10:27:21;9.00;99.90
5466;DHT22;2755;50.728;7.108;2023-03-14T10:30:04;9.30;99.90
5466;DHT22;2755;50.728;7.108;2023-03-14T10:32:37;8.50;99.90
5466;DHT22;2755;50.728;7.108;2023-03-14T10:37:53;8.40;99.90
5466;DHT22;2755;50.728;7.108;2023-03-14T10:48:05;8.10;99.90
5466;DHT22;2755;50.728;7.108;2023-03-14T10:50:31;8.10;99.90
5466;DHT22;2755;50.728;7.108;2023-03-14T10:53:02;9.90;99.90
5466;DHT22;2755;50.728;7.108;2023-03-14T10:55:43;8.30;99.90
5466;DHT22;2755;50.728;7.108;2023-03-14T10:58:27;8.10;99.90
5466;DHT22;2755;50.728;7.108;2023-03-14T11:03:31;7.50;99.90
5466;DHT22;2755;50.728;7.108;2023-03-14T11:06:02;8.30;99.90
5466;DHT22;2755;50.728;7.108;2023-03-14T11:13:42;8.20;99.90
5466;DHT22;2755;50.728;7.108;2023-03-14T11:21:56;8.00;99.90
5466;DHT22;2755;50.728;7.108;2023-03-14T11:27:25;8.20;99.90
5466;DHT22;2755;50.728;7.108;2023-03-14T11:34:52;8.80;99.90
5466;DHT22;2755;50.728;7.108;2023-03-14T11:40:35;8.50;99.90
5466;DHT22;2755;50.728;7.108;2023-03-14T11:42:44;9.30;99.90
5466;DHT22;2755;50.728;7.108;2023-03-14T11:45:21;10.00;99.90
5466;DHT22;2755;50.728;7.108;2023-03-14T11:48:01;10.80;98.30
5466;DHT22;2755;50.728;7.108;2023-03-14T11:50:30;11.00;92.50
5466;DHT22;2755;50.728;7.108;2023-03-14T11:53:01;11.30;90.30
5466;DHT22;2755;50.728;7.108;2023-03-14T11:55:32;10.60;88.60
5466;DHT22;2755;50.728;7.108;2023-03-14T11:58:03;10.90;89.40
5466;DHT22;2755;50.728;7.108;2023-03-14T12:03:04;11.30;88.90
5466;DHT22;2755;50.728;7.108;2023-03-14T12:08:30;11.70;71.10
5466;DHT22;2755;50.728;7.108;2023-03-14T12:11:02;12.30;69.30
5466;DHT22;2755;50.728;7.108;2023-03-14T12:13:32;12.00;63.00
5466;DHT22;2755;50.728;7.108;2023-03-14T12:16:00;11.50;64.60
5466;DHT22;2755;50.728;7.108;2023-03-14T12:21:08;9.60;83.20
5466;DHT22;2755;50.728;7.108;2023-03-14T12:23:43;9.10;96.50
5466;DHT22;2755;50.728;7.108;2023-03-14T12:28:43;8.00;99.90
5466;DHT22;2755;50.728;7.108;2023-03-14T12:31:35;7.80;99.90
5466;DHT22;2755;50.728;7.108;2023-03-14T12:34:25;7.50;99.90
5466;DHT22;2755;50.728;7.108;2023-03-14T12:36:53;7.00;99.90
5466;DHT22;2755;50.728;7.108;2023-03-14T12:44:50;7.20;99.90
5466;DHT22;2755;50.728;7.108;2023-03-14T12:49:46;7.40;99.90
5466;DHT22;2755;50.728;7.108;2023-03-14T12:52:20;7.30;99.90
5466;DHT22;2755;50.728;7.108;2023-03-14T12:57:24;7.40;99.90
5466;DHT22;2755;50.728;7.108;2023-03-14T12:59:56;7.20;99.90
5466;DHT22;2755;50.728;7.108;2023-03-14T13:05:05;7.80;99.90
5466;DHT22;2755;50.728;7.108;2023-03-14T13:08:02;7.90;99.90
5466;DHT22;2755;50.728;7.108;2023-03-14T13:10:30;8.10;99.90
5466;DHT22;2755;50.728;7.108;2023-03-14T13:13:01;7.90;99.90
5466;DHT22;2755;50.728;7.108;2023-03-14T13:18:01;7.70;99.90
5466;DHT22;2755;50.728;7.108;2023-03-14T13:20:37;7.50;99.90
5466;DHT22;2755;50.728;7.108;2023-03-14T13:23:04;7.60;99.90
5466;DHT22;2755;50.728;7.108;2023-03-14T13:25:32;7.40;99.90
5466;DHT22;2755;50.728;7.108;2023-03-14T13:27:59;7.20;99.90
5466;DHT22;2755;50.728;7.108;2023-03-14T13:30:26;7.10;99.90
5466;DHT22;2755;50.728;7.108;2023-03-14T13:32:54;7.00;99.90
5466;DHT22;2755;50.728;7.108;2023-03-14T13:35:27;6.70;99.90
5466;DHT22;2755;50.728;7.108;2023-03-14T13:37:58;6.50;99.90
5466;DHT22;2755;50.728;7.108;2023-03-14T13:40:30;6.70;99.90
5466;DHT22;2755;50.728;7.108;2023-03-14T13:43:15;6.60;99.90
5466;DHT22;2755;50.728;7.108;2023-03-14T13:46:05;6.50;99.90
5466;DHT22;2755;50.728;7.108;2023-03-14T13:58:30;7.90;99.90
5466;DHT22;2755;50.728;7.108;2023-03-14T14:01:02;6.40;99.90
5466;DHT22;2755;50.728;7.108;2023-03-14T14:03:32;6.40;99.90
5466;DHT22;2755;50.728;7.108;2023-03-14T14:05:58;6.50;99.90
5466;DHT22;2755;50.728;7.108;2023-03-14T14:10:56;6.50;99.90
5466;DHT22;2755;50.728;7.108;2023-03-14T14:13:24;6.50;99.90
5466;DHT22;2755;50.728;7.108;2023-03-14T14:15:51;6.30;99.90
5466;DHT22;2755;50.728;7.108;2023-03-14T14:18:20;6.60;99.90
5466;DHT22;2755;50.728;7.108;2023-03-14T14:20:49;6.50;99.90
5466;DHT22;2755;50.728;7.108;2023-03-14T14:23:27;6.30;99.90
5466;DHT22;2755;50.728;7.108;2023-03-14T14:25:55;6.00;99.90
5466;DHT22;2755;50.728;7.108;2023-03-14T14:28:26;5.90;99.90
5466;DHT22;2755;50.728;7.108;2023-03-14T14:33:57;5.90;99.90
5466;DHT22;2755;50.728;7.108;2023-03-14T14:39:33;6.20;99.90
5466;DHT22;2755;50.728;7.108;2023-03-14T14:41:59;5.70;99.90
5466;DHT22;2755;50.728;7.108;2023-03-14T14:44:30;5.70;99.90
5466;DHT22;2755;50.728;7.108;2023-03-14T14:46:57;5.40;99.90
5466;DHT22;2755;50.728;7.108;2023-03-14T14:49:30;5.70;99.90
5466;DHT22;2755;50.728;7.108;2023-03-14T14:52:20;5.70;99.90
5466;DHT22;2755;50.728;7.108;2023-03-14T14:57:32;5.70;99.90
5466;DHT22;2755;50.728;7.108;2023-03-14T15:00:05;5.90;99.90
5466;DHT22;2755;50.728;7.108;2023-03-14T15:02:40;5.70;99.90
5466;DHT22;2755;50.728;7.108;2023-03-14T15:05:15;5.70;99.90
5466;DHT22;2755;50.728;7.108;2023-03-14T15:10:15;5.70;99.90
5466;DHT22;2755;50.728;7.108;2023-03-14T15:12:39;5.70;99.90
5466;DHT22;2755;50.728;7.108;2023-03-14T15:15:06;5.40;99.90
5466;DHT22;2755;50.728;7.108;2023-03-14T15:17:31;5.40;99.90
5466;DHT22;2755;50.728;7.108;2023-03-14T15:19:57;6.00;99.90
5466;DHT22;2755;50.728;7.108;2023-03-14T15:22:24;5.60;99.90
5466;DHT22;2755;50.728;7.108;2023-03-14T15:27:17;5.40;99.90
5466;DHT22;2755;50.728;7.108;2023-03-14T15:29:43;5.60;99.90
5466;DHT22;2755;50.728;7.108;2023-03-14T15:32:14;5.70;99.90
5466;DHT22;2755;50.728;7.108;2023-03-14T15:37:11;5.80;99.90
5466;DHT22;2755;50.728;7.108;2023-03-14T15:39:38;5.30;99.90
5466;DHT22;2755;50.728;7.108;2023-03-14T15:42:04;5.60;99.90
5466;DHT22;2755;50.728;7.108;2023-03-14T15:44:29;5.20;99.90
5466;DHT22;2755;50.728;7.108;2023-03-14T15:46:55;5.30;99.90
5466;DHT22;2755;50.728;7.108;2023-03-14T15:49:20;5.20;99.90
5466;DHT22;2755;50.728;7.108;2023-03-14T15:54:12;5.80;99.90
5466;DHT22;2755;50.728;7.108;2023-03-14T15:56:37;5.30;99.90
5466;DHT22;2755;50.728;7.108;2023-03-14T15:59:03;5.30;99.90
5466;DHT22;2755;50.728;7.108;2023-03-14T16:01:28;5.50;99.90
5466;DHT22;2755;50.728;7.108;2023-03-14T16:03:54;5.70;99.90
5466;DHT22;2755;50.728;7.108;2023-03-14T16:06:20;5.20;99.90
5466;DHT22;2755;50.728;7.108;2023-03-14T16:08:46;5.40;99.90
5466;DHT22;2755;50.728;7.108;2023-03-14T16:13:40;5.60;99.90
5466;DHT22;2755;50.728;7.108;2023-03-14T16:16:06;5.70;99.90
5466;DHT22;2755;50.728;7.108;2023-03-14T16:18:35;5.40;99.90
5466;DHT22;2755;50.728;7.108;2023-03-14T16:21:03;5.20;99.90
5466;DHT22;2755;50.728;7.108;2023-03-14T16:23:31;4.60;99.90
5466;DHT22;2755;50.728;7.108;2023-03-14T16:25:57;5.50;99.90
5466;DHT22;2755;50.728;7.108;2023-03-14T16:28:24;5.60;99.90
5466;DHT22;2755;50.728;7.108;2023-03-14T16:31:02;5.30;99.90
5466;DHT22;2755;50.728;7.108;2023-03-14T16:35:59;5.30;99.90
5466;DHT22;2755;50.728;7.108;2023-03-14T16:48:30;5.60;99.90
5466;DHT22;2755;50.728;7.108;2023-03-14T16:50:56;4.50;99.90
5466;DHT22;2755;50.728;7.108;2023-03-14T16:55:49;5.60;99.90
5466;DHT22;2755;50.728;7.108;2023-03-14T16:58:15;5.20;99.90
5466;DHT22;2755;50.728;7.108;2023-03-14T17:00:44;5.30;99.90
5466;DHT22;2755;50.728;7.108;2023-03-14T17:08:03;5.20;99.90
5466;DHT22;2755;50.728;7.108;2023-03-14T17:10:28;5.60;99.90
5466;DHT22;2755;50.728;7.108;2023-03-14T17:15:20;5.20;99.90
5466;DHT22;2755;50.728;7.108;2023-03-14T17:17:45;4.80;99.90
5466;DHT22;2755;50.728;7.108;2023-03-14T17:20:11;5.00;99.90
5466;DHT22;2755;50.728;7.108;2023-03-14T17:27:35;5.20;99.90
5466;DHT22;2755;50.728;7.108;2023-03-14T17:30:02;5.10;99.90
5466;DHT22;2755;50.728;7.108;2023-03-14T17:37:20;5.20;99.90
5466;DHT22;2755;50.728;7.108;2023-03-14T17:42:12;5.30;99.90
5466;DHT22;2755;50.728;7.108;2023-03-14T17:47:04;5.50;99.90
5466;DHT22;2755;50.728;7.108;2023-03-14T17:49:29;5.30;99.90
5466;DHT22;2755;50.728;7.108;2023-03-14T17:56:47;4.90;99.90
5466;DHT22;2755;50.728;7.108;2023-03-14T18:01:39;5.30;99.90
5466;DHT22;2755;50.728;7.108;2023-03-14T18:04:06;5.30;99.90
5466;DHT22;2755;50.728;7.108;2023-03-14T18:08:59;5.40;99.90
5466;DHT22;2755;50.728;7.108;2023-03-14T18:11:26;5.60;99.90
5466;DHT22;2755;50.728;7.108;2023-03-14T18:13:51;5.30;99.90
5466;DHT22;2755;50.728;7.108;2023-03-14T18:16:17;5.50;99.90
5466;DHT22;2755;50.728;7.108;2023-03-14T18:18:44;5.10;99.90
5466;DHT22;2755;50.728;7.108;2023-03-14T18:21:10;5.40;99.90
5466;DHT22;2755;50.728;7.108;2023-03-14T18:23:36;5.40;99.90
5466;DHT22;2755;50.728;7.108;2023-03-14T18:28:29;5.40;99.90
5466;DHT22;2755;50.728;7.108;2023-03-14T18:31:04;5.40;99.90
5466;DHT22;2755;50.728;7.108;2023-03-14T18:33:30;4.80;99.90
5466;DHT22;2755;50.728;7.108;2023-03-14T18:36:02;5.20;99.90
5466;DHT22;2755;50.728;7.108;2023-03-14T18:40:54;5.40;99.90
5466;DHT22;2755;50.728;7.108;2023-03-14T18:43:19;6.10;99.90
5466;DHT22;2755;50.728;7.108;2023-03-14T18:45:45;5.60;99.90
5466;DHT22;2755;50.728;7.108;2023-03-14T18:50:36;5.00;99.90
5466;DHT22;2755;50.728;7.108;2023-03-14T18:53:02;5.10;99.90
5466;DHT22;2755;50.728;7.108;2023-03-14T18:55:28;5.40;99.90
5466;DHT22;2755;50.728;7.108;2023-03-14T18:57:53;5.20;99.90
5466;DHT22;2755;50.728;7.108;2023-03-14T19:00:19;5.20;99.90
5466;DHT22;2755;50.728;7.108;2023-03-14T19:07:38;4.90;99.90
5466;DHT22;2755;50.728;7.108;2023-03-14T19:10:04;5.10;99.90
5466;DHT22;2755;50.728;7.108;2023-03-14T19:12:30;5.10;95.80
5466;DHT22;2755;50.728;7.108;2023-03-14T19:14:55;5.10;93.50
5466;DHT22;2755;50.728;7.108;2023-03-14T19:19:47;5.00;73.60
5466;DHT22;2755;50.728;7.108;2023-03-14T19:27:05;5.00;73.90
5466;DHT22;2755;50.728;7.108;2023-03-14T19:31:59;5.60;64.20
5466;DHT22;2755;50.728;7.108;2023-03-14T19:39:17;5.20;59.20
5466;DHT22;2755;50.728;7.108;2023-03-14T19:44:08;5.20;54.30
5466;DHT22;2755;50.728;7.108;2023-03-14T19:53:52;4.80;55.20
5466;DHT22;2755;50.728;7.108;2023-03-14T19:56:18;5.20;56.50
5466;DHT22;2755;50.728;7.108;2023-03-14T19:58:45;4.90;57.80
5466;DHT22;2755;50.728;7.108;2023-03-14T20:03:39;4.40;56.90
5466;DHT22;2755;50.728;7.108;2023-03-14T20:06:09;4.80;56.80
5466;DHT22;2755;50.728;7.108;2023-03-14T20:08:36;4.80;60.40
5466;DHT22;2755;50.728;7.108;2023-03-14T20:11:05;4.80;55.60
5466;DHT22;2755;50.728;7.108;2023-03-14T20:13:31;5.00;58.00
5466;DHT22;2755;50.728;7.108;2023-03-14T20:18:23;4.50;57.80
5466;DHT22;2755;50.728;7.108;2023-03-14T20:20:49;4.70;57.40
5466;DHT22;2755;50.728;7.108;2023-03-14T20:28:07;4.60;61.40
5466;DHT22;2755;50.728;7.108;2023-03-14T20:30:33;4.30;59.00
5466;DHT22;2755;50.728;7.108;2023-03-14T20:32:59;4.40;60.50
5466;DHT22;2755;50.728;7.108;2023-03-14T20:35:28;4.00;62.30
5466;DHT22;2755;50.728;7.108;2023-03-14T20:37:54;4.30;61.70
5466;DHT22;2755;50.728;7.108;2023-03-14T20:40:21;4.10;57.90
5466;DHT22;2755;50.728;7.108;2023-03-14T20:42:49;4.10;56.70
5466;DHT22;2755;50.728;7.108;2023-03-14T20:47:41;4.00;59.80
5466;DHT22;2755;50.728;7.108;2023-03-14T20:50:07;4.60;61.10
5466;DHT22;2755;50.728;7.108;2023-03-14T20:52:33;4.30;58.00